sensor_id;sensor_type;location;lat;lon;timestamp;temperature;humidity
40638;DHT22;26336;44.696;10.622;2024-03-17T00:02:33;13.40;99.90
40638;DHT22;26336;44.696;10.622;2024-03-17T00:05:37;13.30;99.90
40638;DHT22;26336;44.696;10.622;2024-03-17T00:08:41;13.30;99.90
40638;DHT22;26336;44.696;10.622;2024-03-17T00:11:45;13.20;99.90
40638;DHT22;26336;44.696;10.622;2024-03-17T00:14:49;12.90;99.90
40638;DHT22;26336;44.696;10.622;2024-03-17T00:17:53;12.70;99.90
40638;DHT22;26336;44.696;10.622;2024-03-17T00:20:57;12.70;99.90
40638;DHT22;26336;44.696;10.622;2024-03-17T00:24:01;12.80;99.90
40638;DHT22;26336;44.696;10.622;2024-03-17T00:27:06;12.80;99.90
40638;DHT22;26336;44.696;10.622;2024-03-17T00:30:10;12.90;99.90
40638;DHT22;26336;44.696;10.622;2024-03-17T00:33:16;12.90;99.90
40638;DHT22;26336;44.696;10.622;2024-03-17T00:36:20;12.90;99.90
40638;DHT22;26336;44.696;10.622;2024-03-17T00:39:25;13.10;99.90
40638;DHT22;26336;44.696;10.622;2024-03-17T00:42:29;13.10;99.90
40638;DHT22;26336;44.696;10.622;2024-03-17T00:45:33;13.10;99.90
40638;DHT22;26336;44.696;10.622;2024-03-17T00:48:37;13.20;99.90
40638;DHT22;26336;44.696;10.622;2024-03-17T00:51:41;13.20;99.90
40638;DHT22;26336;44.696;10.622;2024-03-17T00:54:49;13.20;99.90
40638;DHT22;26336;44.696;10.622;2024-03-17T00:57:52;13.20;99.90
40638;DHT22;26336;44.696;10.622;2024-03-17T01:00:58;13.20;99.90
40638;DHT22;26336;44.696;10.622;2024-03-17T01:04:02;13.20;99.90
40638;DHT22;26336;44.696;10.622;2024-03-17T01:07:06;13.20;99.90
40638;DHT22;26336;44.696;10.622;2024-03-17T01:10:13;13.20;99.90
40638;DHT22;26336;44.696;10.622;2024-03-17T01:13:17;13.20;99.90
40638;DHT22;26336;44.696;10.622;2024-03-17T01:16:21;13.20;99.90
40638;DHT22;26336;44.696;10.622;2024-03-17T01:19:26;13.20;99.90
40638;DHT22;26336;44.696;10.622;2024-03-17T01:22:30;13.10;99.90
40638;DHT22;26336;44.696;10.622;2024-03-17T01:25:34;13.10;99.90
40638;DHT22;26336;44.696;10.622;2024-03-17T01:28:41;13.00;99.90
40638;DHT22;26336;44.696;10.622;2024-03-17T01:31:45;12.90;99.90
40638;DHT22;26336;44.696;10.622;2024-03-17T01:34:49;12.90;99.90
40638;DHT22;26336;44.696;10.622;2024-03-17T01:37:53;12.90;99.90
40638;DHT22;26336;44.696;10.622;2024-03-17T01:40:56;13.00;99.90
40638;DHT22;26336;44.696;10.622;2024-03-17T01:44:00;12.90;99.90
40638;DHT22;26336;44.696;10.622;2024-03-17T01:47:05;12.90;99.90
40638;DHT22;26336;44.696;10.622;2024-03-17T01:50:09;12.90;99.90
40638;DHT22;26336;44.696;10.622;2024-03-17T01:53:14;12.90;99.90
40638;DHT22;26336;44.696;10.622;2024-03-17T01:56:19;12.90;99.90
40638;DHT22;26336;44.696;10.622;2024-03-17T01:59:24;12.90;99.90
40638;DHT22;26336;44.696;10.622;2024-03-17T02:02:28;12.90;99.90
40638;DHT22;26336;44.696;10.622;2024-03-17T02:05:32;12.80;99.90
40638;DHT22;26336;44.696;10.622;2024-03-17T02:08:49;12.70;99.90
40638;DHT22;26336;44.696;10.622;2024-03-17T02:11:53;12.70;99.90
40638;DHT22;26336;44.696;10.622;2024-03-17T02:15:01;12.70;99.90
40638;DHT22;26336;44.696;10.622;2024-03-17T02:18:05;12.40;99.90
40638;DHT22;26336;44.696;10.622;2024-03-17T02:21:09;12.40;99.90
40638;DHT22;26336;44.696;10.622;2024-03-17T02:24:12;12.40;99.90
40638;DHT22;26336;44.696;10.622;2024-03-17T02:27:16;12.40;99.90
40638;DHT22;26336;44.696;10.622;2024-03-17T02:30:20;12.40;99.90
40638;DHT22;26336;44.696;10.622;2024-03-17T02:33:24;12.40;99.90
40638;DHT22;26336;44.696;10.622;2024-03-17T02:36:28;12.40;99.90
40638;DHT22;26336;44.696;10.622;2024-03-17T02:39:33;12.40;99.90
40638;DHT22;26336;44.696;10.622;2024-03-17T02:42:40;12.40;99.90
40638;DHT22;26336;44.696;10.622;2024-03-17T02:45:45;12.40;99.90
40638;DHT22;26336;44.696;10.622;2024-03-17T02:48:52;12.50;99.90
40638;DHT22;26336;44.696;10.622;2024-03-17T02:51:57;12.50;99.90
40638;DHT22;26336;44.696;10.622;2024-03-17T02:55:01;12.50;99.90
40638;DHT22;26336;44.696;10.622;2024-03-17T02:58:04;12.50;99.90
40638;DHT22;26336;44.696;10.622;2024-03-17T03:01:12;12.50;99.90
40638;DHT22;26336;44.696;10.622;2024-03-17T03:04:17;12.50;99.90
40638;DHT22;26336;44.696;10.622;2024-03-17T03:07:21;12.20;99.90
40638;DHT22;26336;44.696;10.622;2024-03-17T03:10:25;12.10;99.90
40638;DHT22;26336;44.696;10.622;2024-03-17T03:13:29;12.20;99.90
40638;DHT22;26336;44.696;10.622;2024-03-17T03:16:33;12.20;99.90
40638;DHT22;26336;44.696;10.622;2024-03-17T03:19:37;12.30;99.90
40638;DHT22;26336;44.696;10.622;2024-03-17T03:22:41;12.30;99.90
40638;DHT22;26336;44.696;10.622;2024-03-17T03:25:45;12.40;99.90
40638;DHT22;26336;44.696;10.622;2024-03-17T03:28:54;12.30;99.90
40638;DHT22;26336;44.696;10.622;2024-03-17T03:31:58;12.30;99.90
40638;DHT22;26336;44.696;10.622;2024-03-17T03:35:02;12.30;99.90
40638;DHT22;26336;44.696;10.622;2024-03-17T03:38:08;12.40;99.90
40638;DHT22;26336;44.696;10.622;2024-03-17T03:41:14;12.40;99.90
40638;DHT22;26336;44.696;10.622;2024-03-17T03:44:19;12.50;99.90
40638;DHT22;26336;44.696;10.622;2024-03-17T03:47:22;12.50;99.90
40638;DHT22;26336;44.696;10.622;2024-03-17T03:50:26;12.50;99.90
40638;DHT22;26336;44.696;10.622;2024-03-17T03:53:31;12.50;99.90
40638;DHT22;26336;44.696;10.622;2024-03-17T03:56:35;12.50;99.90
40638;DHT22;26336;44.696;10.622;2024-03-17T03:59:39;12.60;99.90
40638;DHT22;26336;44.696;10.622;2024-03-17T04:02:43;12.60;99.90
40638;DHT22;26336;44.696;10.622;2024-03-17T04:05:47;12.50;99.90
40638;DHT22;26336;44.696;10.622;2024-03-17T04:08:51;12.50;99.90
40638;DHT22;26336;44.696;10.622;2024-03-17T04:11:55;12.50;99.90
40638;DHT22;26336;44.696;10.622;2024-03-17T04:14:59;12.50;99.90
40638;DHT22;26336;44.696;10.622;2024-03-17T04:18:03;12.40;99.90
40638;DHT22;26336;44.696;10.622;2024-03-17T04:21:07;12.40;99.90
40638;DHT22;26336;44.696;10.622;2024-03-17T04:24:11;12.40;99.90
40638;DHT22;26336;44.696;10.622;2024-03-17T04:27:15;12.40;99.90
40638;DHT22;26336;44.696;10.622;2024-03-17T04:30:19;12.40;99.90
40638;DHT22;26336;44.696;10.622;2024-03-17T04:33:23;12.30;99.90
40638;DHT22;26336;44.696;10.622;2024-03-17T04:36:27;12.30;99.90
40638;DHT22;26336;44.696;10.622;2024-03-17T04:39:31;12.30;99.90
40638;DHT22;26336;44.696;10.622;2024-03-17T04:42:35;12.30;99.90
40638;DHT22;26336;44.696;10.622;2024-03-17T04:45:39;12.20;99.90
40638;DHT22;26336;44.696;10.622;2024-03-17T04:48:42;12.20;99.90
40638;DHT22;26336;44.696;10.622;2024-03-17T04:51:46;12.20;99.90
40638;DHT22;26336;44.696;10.622;2024-03-17T04:54:50;12.10;99.90
40638;DHT22;26336;44.696;10.622;2024-03-17T04:57:54;12.20;99.90
40638;DHT22;26336;44.696;10.622;2024-03-17T05:01:03;12.10;99.90
40638;DHT22;26336;44.696;10.622;2024-03-17T05:04:07;12.10;99.90
40638;DHT22;26336;44.696;10.622;2024-03-17T05:07:11;12.10;99.90
40638;DHT22;26336;44.696;10.622;2024-03-17T05:10:15;12.10;99.90
40638;DHT22;26336;44.696;10.622;2024-03-17T05:13:19;12.10;99.90
40638;DHT22;26336;44.696;10.622;2024-03-17T05:16:23;12.00;99.90
40638;DHT22;26336;44.696;10.622;2024-03-17T05:19:28;12.10;99.90
40638;DHT22;26336;44.696;10.622;2024-03-17T05:22:32;12.00;99.90
40638;DHT22;26336;44.696;10.622;2024-03-17T05:25:36;12.00;99.90
40638;DHT22;26336;44.696;10.622;2024-03-17T05:28:41;11.90;99.90
40638;DHT22;26336;44.696;10.622;2024-03-17T05:31:45;12.00;99.90
40638;DHT22;26336;44.696;10.622;2024-03-17T05:34:50;12.00;99.90
40638;DHT22;26336;44.696;10.622;2024-03-17T05:37:54;12.00;99.90
40638;DHT22;26336;44.696;10.622;2024-03-17T05:41:03;11.90;99.90
40638;DHT22;26336;44.696;10.622;2024-03-17T05:44:07;11.90;99.90
40638;DHT22;26336;44.696;10.622;2024-03-17T05:47:11;11.90;99.90
40638;DHT22;26336;44.696;10.622;2024-03-17T05:50:16;12.00;99.90
40638;DHT22;26336;44.696;10.622;2024-03-17T05:53:21;12.00;99.90
40638;DHT22;26336;44.696;10.622;2024-03-17T05:56:25;12.00;99.90
40638;DHT22;26336;44.696;10.622;2024-03-17T05:59:29;12.00;99.90
40638;DHT22;26336;44.696;10.622;2024-03-17T06:02:33;12.10;99.90
40638;DHT22;26336;44.696;10.622;2024-03-17T06:05:39;12.10;99.90
40638;DHT22;26336;44.696;10.622;2024-03-17T06:08:46;12.20;99.90
40638;DHT22;26336;44.696;10.622;2024-03-17T06:11:50;12.20;99.90
40638;DHT22;26336;44.696;10.622;2024-03-17T06:14:54;12.20;99.90
40638;DHT22;26336;44.696;10.622;2024-03-17T06:17:58;11.90;99.90
40638;DHT22;26336;44.696;10.622;2024-03-17T06:21:05;11.80;99.90
40638;DHT22;26336;44.696;10.622;2024-03-17T06:24:10;11.90;99.90
40638;DHT22;26336;44.696;10.622;2024-03-17T06:27:13;12.00;99.90
40638;DHT22;26336;44.696;10.622;2024-03-17T06:30:18;12.10;99.90
40638;DHT22;26336;44.696;10.622;2024-03-17T06:33:22;12.10;99.90
40638;DHT22;26336;44.696;10.622;2024-03-17T06:36:26;12.30;99.90
40638;DHT22;26336;44.696;10.622;2024-03-17T06:39:30;12.30;99.90
40638;DHT22;26336;44.696;10.622;2024-03-17T06:42:34;12.40;99.90
40638;DHT22;26336;44.696;10.622;2024-03-17T06:45:38;12.40;99.90
40638;DHT22;26336;44.696;10.622;2024-03-17T06:48:42;12.30;99.90
40638;DHT22;26336;44.696;10.622;2024-03-17T06:51:46;12.20;99.90
40638;DHT22;26336;44.696;10.622;2024-03-17T06:54:53;12.20;99.90
40638;DHT22;26336;44.696;10.622;2024-03-17T06:57:57;12.20;99.90
40638;DHT22;26336;44.696;10.622;2024-03-17T07:01:01;12.20;99.90
40638;DHT22;26336;44.696;10.622;2024-03-17T07:04:06;12.20;99.90
40638;DHT22;26336;44.696;10.622;2024-03-17T07:07:10;12.30;99.90
40638;DHT22;26336;44.696;10.622;2024-03-17T07:10:15;12.40;99.90
40638;DHT22;26336;44.696;10.622;2024-03-17T07:13:19;12.40;99.90
40638;DHT22;26336;44.696;10.622;2024-03-17T07:16:23;12.50;99.90
40638;DHT22;26336;44.696;10.622;2024-03-17T07:19:30;12.80;99.90
40638;DHT22;26336;44.696;10.622;2024-03-17T07:22:39;12.90;99.90
40638;DHT22;26336;44.696;10.622;2024-03-17T07:25:51;13.00;99.90
40638;DHT22;26336;44.696;10.622;2024-03-17T07:28:56;13.00;99.90
40638;DHT22;26336;44.696;10.622;2024-03-17T07:32:00;13.10;99.90
40638;DHT22;26336;44.696;10.622;2024-03-17T07:35:04;13.30;99.90
40638;DHT22;26336;44.696;10.622;2024-03-17T07:38:08;13.50;99.90
40638;DHT22;26336;44.696;10.622;2024-03-17T07:41:14;13.60;99.90
40638;DHT22;26336;44.696;10.622;2024-03-17T07:44:18;13.70;99.90
40638;DHT22;26336;44.696;10.622;2024-03-17T07:47:22;13.80;99.90
40638;DHT22;26336;44.696;10.622;2024-03-17T07:50:26;13.90;99.90
40638;DHT22;26336;44.696;10.622;2024-03-17T07:53:31;13.90;99.90
40638;DHT22;26336;44.696;10.622;2024-03-17T07:56:35;14.10;99.90
40638;DHT22;26336;44.696;10.622;2024-03-17T07:59:39;14.20;99.90
40638;DHT22;26336;44.696;10.622;2024-03-17T08:02:47;14.30;99.90
40638;DHT22;26336;44.696;10.622;2024-03-17T08:05:50;14.40;99.90
40638;DHT22;26336;44.696;10.622;2024-03-17T08:08:55;14.50;99.90
40638;DHT22;26336;44.696;10.622;2024-03-17T08:11:59;14.60;99.90
40638;DHT22;26336;44.696;10.622;2024-03-17T08:15:03;14.60;99.90
40638;DHT22;26336;44.696;10.622;2024-03-17T08:18:08;14.60;99.90
40638;DHT22;26336;44.696;10.622;2024-03-17T08:21:12;14.60;99.90
40638;DHT22;26336;44.696;10.622;2024-03-17T08:24:16;14.70;99.90
40638;DHT22;26336;44.696;10.622;2024-03-17T08:27:21;14.80;99.90
40638;DHT22;26336;44.696;10.622;2024-03-17T08:30:25;14.90;99.90
40638;DHT22;26336;44.696;10.622;2024-03-17T08:33:30;15.00;99.90
40638;DHT22;26336;44.696;10.622;2024-03-17T08:36:34;15.00;99.90
40638;DHT22;26336;44.696;10.622;2024-03-17T08:39:38;15.10;99.90
40638;DHT22;26336;44.696;10.622;2024-03-17T08:42:42;15.20;99.90
40638;DHT22;26336;44.696;10.622;2024-03-17T08:45:57;15.30;99.90
40638;DHT22;26336;44.696;10.622;2024-03-17T08:49:06;15.40;99.90
40638;DHT22;26336;44.696;10.622;2024-03-17T08:52:10;15.50;99.90
40638;DHT22;26336;44.696;10.622;2024-03-17T08:55:14;15.60;99.90
40638;DHT22;26336;44.696;10.622;2024-03-17T08:58:18;15.60;99.90
40638;DHT22;26336;44.696;10.622;2024-03-17T09:01:22;15.70;99.90
40638;DHT22;26336;44.696;10.622;2024-03-17T09:04:27;15.80;99.90
40638;DHT22;26336;44.696;10.622;2024-03-17T09:07:33;16.00;99.90
40638;DHT22;26336;44.696;10.622;2024-03-17T09:10:43;16.00;99.90
40638;DHT22;26336;44.696;10.622;2024-03-17T09:13:48;16.00;99.90
40638;DHT22;26336;44.696;10.622;2024-03-17T09:16:52;16.10;99.90
40638;DHT22;26336;44.696;10.622;2024-03-17T09:19:56;16.20;99.90
40638;DHT22;26336;44.696;10.622;2024-03-17T09:23:00;16.30;99.90
40638;DHT22;26336;44.696;10.622;2024-03-17T09:26:08;16.40;99.90
40638;DHT22;26336;44.696;10.622;2024-03-17T09:29:13;16.50;99.90
40638;DHT22;26336;44.696;10.622;2024-03-17T09:32:19;16.60;99.90
40638;DHT22;26336;44.696;10.622;2024-03-17T09:35:23;16.60;99.90
40638;DHT22;26336;44.696;10.622;2024-03-17T09:38:28;16.70;99.90
40638;DHT22;26336;44.696;10.622;2024-03-17T09:41:33;16.80;99.90
40638;DHT22;26336;44.696;10.622;2024-03-17T09:44:39;16.90;99.90
40638;DHT22;26336;44.696;10.622;2024-03-17T09:47:43;17.00;99.90
40638;DHT22;26336;44.696;10.622;2024-03-17T09:50:51;17.00;99.90
40638;DHT22;26336;44.696;10.622;2024-03-17T09:53:58;17.00;99.90
40638;DHT22;26336;44.696;10.622;2024-03-17T09:57:08;16.80;99.90
40638;DHT22;26336;44.696;10.622;2024-03-17T10:00:16;16.90;99.90
40638;DHT22;26336;44.696;10.622;2024-03-17T10:03:43;16.90;99.90
40638;DHT22;26336;44.696;10.622;2024-03-17T10:07:02;16.90;99.90
40638;DHT22;26336;44.696;10.622;2024-03-17T10:10:13;17.00;99.90
40638;DHT22;26336;44.696;10.622;2024-03-17T10:13:17;17.00;99.90
40638;DHT22;26336;44.696;10.622;2024-03-17T10:16:25;17.00;99.90
40638;DHT22;26336;44.696;10.622;2024-03-17T10:19:29;17.00;99.90
40638;DHT22;26336;44.696;10.622;2024-03-17T10:22:33;17.10;99.90
40638;DHT22;26336;44.696;10.622;2024-03-17T10:25:39;17.20;99.90
40638;DHT22;26336;44.696;10.622;2024-03-17T10:28:44;17.30;99.90
40638;DHT22;26336;44.696;10.622;2024-03-17T10:31:48;17.40;99.90
40638;DHT22;26336;44.696;10.622;2024-03-17T10:34:52;17.50;99.90
40638;DHT22;26336;44.696;10.622;2024-03-17T10:38:08;17.40;99.90
40638;DHT22;26336;44.696;10.622;2024-03-17T10:41:13;17.50;99.90
40638;DHT22;26336;44.696;10.622;2024-03-17T10:44:17;17.50;99.90
40638;DHT22;26336;44.696;10.622;2024-03-17T10:47:25;17.50;99.90
40638;DHT22;26336;44.696;10.622;2024-03-17T10:50:30;17.60;99.90
40638;DHT22;26336;44.696;10.622;2024-03-17T10:53:35;17.60;99.90
40638;DHT22;26336;44.696;10.622;2024-03-17T10:56:40;17.50;99.90
40638;DHT22;26336;44.696;10.622;2024-03-17T10:59:47;17.60;99.90
40638;DHT22;26336;44.696;10.622;2024-03-17T11:02:52;17.60;99.90
40638;DHT22;26336;44.696;10.622;2024-03-17T11:06:01;17.60;99.90
40638;DHT22;26336;44.696;10.622;2024-03-17T11:09:13;17.70;99.90
40638;DHT22;26336;44.696;10.622;2024-03-17T11:15:43;17.60;99.90
40638;DHT22;26336;44.696;10.622;2024-03-17T11:18:47;17.60;99.90
40638;DHT22;26336;44.696;10.622;2024-03-17T11:21:51;17.60;99.90
40638;DHT22;26336;44.696;10.622;2024-03-17T11:24:55;17.60;99.90
40638;DHT22;26336;44.696;10.622;2024-03-17T11:28:00;17.60;99.90
40638;DHT22;26336;44.696;10.622;2024-03-17T11:31:05;17.70;99.90
40638;DHT22;26336;44.696;10.622;2024-03-17T11:34:32;17.70;99.90
40638;DHT22;26336;44.696;10.622;2024-03-17T11:37:43;17.70;99.90
40638;DHT22;26336;44.696;10.622;2024-03-17T11:40:47;17.70;99.90
40638;DHT22;26336;44.696;10.622;2024-03-17T11:43:51;17.80;99.90
40638;DHT22;26336;44.696;10.622;2024-03-17T11:47:15;17.70;99.90
40638;DHT22;26336;44.696;10.622;2024-03-17T11:50:19;17.70;99.90
40638;DHT22;26336;44.696;10.622;2024-03-17T11:53:23;17.80;99.90
40638;DHT22;26336;44.696;10.622;2024-03-17T11:56:29;17.80;99.90
40638;DHT22;26336;44.696;10.622;2024-03-17T11:59:34;17.80;99.90
40638;DHT22;26336;44.696;10.622;2024-03-17T12:02:38;17.70;99.90
40638;DHT22;26336;44.696;10.622;2024-03-17T12:05:42;17.80;99.90
40638;DHT22;26336;44.696;10.622;2024-03-17T12:08:46;17.80;99.90
40638;DHT22;26336;44.696;10.622;2024-03-17T12:11:58;17.80;99.90
40638;DHT22;26336;44.696;10.622;2024-03-17T12:15:03;17.80;99.90
40638;DHT22;26336;44.696;10.622;2024-03-17T12:18:20;17.80;99.90
40638;DHT22;26336;44.696;10.622;2024-03-17T12:21:25;17.90;99.90
40638;DHT22;26336;44.696;10.622;2024-03-17T12:24:30;17.90;99.90
40638;DHT22;26336;44.696;10.622;2024-03-17T12:27:35;17.90;99.90
40638;DHT22;26336;44.696;10.622;2024-03-17T12:30:39;18.00;99.90
40638;DHT22;26336;44.696;10.622;2024-03-17T12:33:43;18.00;99.90
40638;DHT22;26336;44.696;10.622;2024-03-17T12:36:48;18.10;99.90
40638;DHT22;26336;44.696;10.622;2024-03-17T12:39:53;18.10;99.90
40638;DHT22;26336;44.696;10.622;2024-03-17T12:42:59;18.10;99.90
40638;DHT22;26336;44.696;10.622;2024-03-17T12:46:03;18.10;99.90
40638;DHT22;26336;44.696;10.622;2024-03-17T12:49:09;18.10;99.90
40638;DHT22;26336;44.696;10.622;2024-03-17T12:52:28;18.10;99.90
40638;DHT22;26336;44.696;10.622;2024-03-17T12:55:33;18.20;99.90
40638;DHT22;26336;44.696;10.622;2024-03-17T12:59:04;18.20;99.90
40638;DHT22;26336;44.696;10.622;2024-03-17T13:02:27;18.20;99.90
40638;DHT22;26336;44.696;10.622;2024-03-17T13:05:32;18.20;99.90
40638;DHT22;26336;44.696;10.622;2024-03-17T13:08:36;18.20;99.90
40638;DHT22;26336;44.696;10.622;2024-03-17T13:11:40;18.20;99.90
40638;DHT22;26336;44.696;10.622;2024-03-17T13:14:44;18.20;99.90
40638;DHT22;26336;44.696;10.622;2024-03-17T13:17:48;18.30;99.90
40638;DHT22;26336;44.696;10.622;2024-03-17T13:20:52;18.30;99.90
40638;DHT22;26336;44.696;10.622;2024-03-17T13:24:01;18.30;99.90
40638;DHT22;26336;44.696;10.622;2024-03-17T13:27:06;18.40;99.90
40638;DHT22;26336;44.696;10.622;2024-03-17T13:30:13;18.40;99.90
40638;DHT22;26336;44.696;10.622;2024-03-17T13:33:18;18.40;99.90
40638;DHT22;26336;44.696;10.622;2024-03-17T13:36:22;18.40;99.90
40638;DHT22;26336;44.696;10.622;2024-03-17T13:39:30;18.40;99.90
40638;DHT22;26336;44.696;10.622;2024-03-17T13:42:37;18.30;99.90
40638;DHT22;26336;44.696;10.622;2024-03-17T13:45:42;18.40;99.90
40638;DHT22;26336;44.696;10.622;2024-03-17T13:48:52;18.40;99.90
40638;DHT22;26336;44.696;10.622;2024-03-17T13:52:01;18.30;99.90
40638;DHT22;26336;44.696;10.622;2024-03-17T13:55:06;18.40;99.90
40638;DHT22;26336;44.696;10.622;2024-03-17T13:58:10;18.40;99.90
40638;DHT22;26336;44.696;10.622;2024-03-17T14:01:13;18.40;99.90
40638;DHT22;26336;44.696;10.622;2024-03-17T14:04:17;18.40;99.90
40638;DHT22;26336;44.696;10.622;2024-03-17T14:07:22;18.30;99.90
40638;DHT22;26336;44.696;10.622;2024-03-17T14:10:26;18.30;99.90
40638;DHT22;26336;44.696;10.622;2024-03-17T14:13:31;18.30;99.90
40638;DHT22;26336;44.696;10.622;2024-03-17T14:16:35;18.20;99.90
40638;DHT22;26336;44.696;10.622;2024-03-17T14:19:39;18.20;99.90
40638;DHT22;26336;44.696;10.622;2024-03-17T14:22:44;18.20;99.90
40638;DHT22;26336;44.696;10.622;2024-03-17T14:25:51;18.20;99.90
40638;DHT22;26336;44.696;10.622;2024-03-17T14:28:58;18.30;99.90
40638;DHT22;26336;44.696;10.622;2024-03-17T14:32:03;18.30;99.90
40638;DHT22;26336;44.696;10.622;2024-03-17T14:35:13;18.30;99.90
40638;DHT22;26336;44.696;10.622;2024-03-17T14:38:17;18.40;99.90
40638;DHT22;26336;44.696;10.622;2024-03-17T14:41:21;18.40;99.90
40638;DHT22;26336;44.696;10.622;2024-03-17T14:44:28;18.50;99.90
40638;DHT22;26336;44.696;10.622;2024-03-17T14:47:32;18.50;99.90
40638;DHT22;26336;44.696;10.622;2024-03-17T14:50:36;18.50;99.90
40638;DHT22;26336;44.696;10.622;2024-03-17T14:53:40;18.50;99.90
40638;DHT22;26336;44.696;10.622;2024-03-17T14:56:52;18.50;99.90
40638;DHT22;26336;44.696;10.622;2024-03-17T14:59:59;18.40;99.90
40638;DHT22;26336;44.696;10.622;2024-03-17T15:03:03;18.40;99.90
40638;DHT22;26336;44.696;10.622;2024-03-17T15:06:12;18.50;99.90
40638;DHT22;26336;44.696;10.622;2024-03-17T15:09:16;18.40;99.90
40638;DHT22;26336;44.696;10.622;2024-03-17T15:12:22;18.40;99.90
40638;DHT22;26336;44.696;10.622;2024-03-17T15:15:26;18.40;99.90
40638;DHT22;26336;44.696;10.622;2024-03-17T15:18:31;18.30;99.90
40638;DHT22;26336;44.696;10.622;2024-03-17T15:21:37;18.40;99.90
40638;DHT22;26336;44.696;10.622;2024-03-17T15:24:41;18.40;99.90
40638;DHT22;26336;44.696;10.622;2024-03-17T15:27:47;18.30;99.90
40638;DHT22;26336;44.696;10.622;2024-03-17T15:30:51;18.40;99.90
40638;DHT22;26336;44.696;10.622;2024-03-17T15:33:55;18.30;99.90
40638;DHT22;26336;44.696;10.622;2024-03-17T15:37:00;18.40;99.90
40638;DHT22;26336;44.696;10.622;2024-03-17T15:40:04;18.30;99.90
40638;DHT22;26336;44.696;10.622;2024-03-17T15:43:08;18.30;99.90
40638;DHT22;26336;44.696;10.622;2024-03-17T15:46:15;18.30;99.90
40638;DHT22;26336;44.696;10.622;2024-03-17T15:49:20;18.30;99.90
40638;DHT22;26336;44.696;10.622;2024-03-17T15:52:25;18.20;99.90
40638;DHT22;26336;44.696;10.622;2024-03-17T15:55:29;18.20;99.90
40638;DHT22;26336;44.696;10.622;2024-03-17T15:58:33;18.20;99.90
40638;DHT22;26336;44.696;10.622;2024-03-17T16:01:37;18.20;99.90
40638;DHT22;26336;44.696;10.622;2024-03-17T16:04:41;18.10;99.90
40638;DHT22;26336;44.696;10.622;2024-03-17T16:07:46;18.10;99.90
40638;DHT22;26336;44.696;10.622;2024-03-17T16:10:57;18.10;99.90
40638;DHT22;26336;44.696;10.622;2024-03-17T16:14:03;18.00;99.90
40638;DHT22;26336;44.696;10.622;2024-03-17T16:17:10;18.00;99.90
40638;DHT22;26336;44.696;10.622;2024-03-17T16:20:41;18.00;99.90
40638;DHT22;26336;44.696;10.622;2024-03-17T16:24:03;18.00;99.90
40638;DHT22;26336;44.696;10.622;2024-03-17T16:27:08;18.00;99.90
40638;DHT22;26336;44.696;10.622;2024-03-17T16:30:13;18.00;99.90
40638;DHT22;26336;44.696;10.622;2024-03-17T16:33:17;18.00;99.90
40638;DHT22;26336;44.696;10.622;2024-03-17T16:36:23;17.90;99.90
40638;DHT22;26336;44.696;10.622;2024-03-17T16:39:29;17.90;99.90
40638;DHT22;26336;44.696;10.622;2024-03-17T16:42:34;17.90;99.90
40638;DHT22;26336;44.696;10.622;2024-03-17T16:45:44;17.90;99.90
40638;DHT22;26336;44.696;10.622;2024-03-17T16:48:52;17.80;99.90
40638;DHT22;26336;44.696;10.622;2024-03-17T16:51:56;17.80;99.90
40638;DHT22;26336;44.696;10.622;2024-03-17T16:55:00;17.80;99.90
40638;DHT22;26336;44.696;10.622;2024-03-17T16:58:04;17.80;99.90
40638;DHT22;26336;44.696;10.622;2024-03-17T17:01:12;17.80;99.90
40638;DHT22;26336;44.696;10.622;2024-03-17T17:04:16;17.80;99.90
40638;DHT22;26336;44.696;10.622;2024-03-17T17:07:20;17.80;99.90
40638;DHT22;26336;44.696;10.622;2024-03-17T17:10:25;17.80;99.90
40638;DHT22;26336;44.696;10.622;2024-03-17T17:13:29;17.80;99.90
40638;DHT22;26336;44.696;10.622;2024-03-17T17:16:33;17.70;99.90
40638;DHT22;26336;44.696;10.622;2024-03-17T17:19:38;17.70;99.90
40638;DHT22;26336;44.696;10.622;2024-03-17T17:22:43;17.70;99.90
40638;DHT22;26336;44.696;10.622;2024-03-17T17:25:47;17.70;99.90
40638;DHT22;26336;44.696;10.622;2024-03-17T17:28:56;17.60;99.90
40638;DHT22;26336;44.696;10.622;2024-03-17T17:32:00;17.60;99.90
40638;DHT22;26336;44.696;10.622;2024-03-17T17:35:05;17.60;99.90
40638;DHT22;26336;44.696;10.622;2024-03-17T17:38:09;17.50;99.90
40638;DHT22;26336;44.696;10.622;2024-03-17T17:41:13;17.50;99.90
40638;DHT22;26336;44.696;10.622;2024-03-17T17:44:20;17.50;99.90
40638;DHT22;26336;44.696;10.622;2024-03-17T17:47:24;17.50;99.90
40638;DHT22;26336;44.696;10.622;2024-03-17T17:50:28;17.40;99.90
40638;DHT22;26336;44.696;10.622;2024-03-17T17:53:33;17.30;99.90
40638;DHT22;26336;44.696;10.622;2024-03-17T17:56:38;17.20;99.90
40638;DHT22;26336;44.696;10.622;2024-03-17T17:59:43;17.20;99.90
40638;DHT22;26336;44.696;10.622;2024-03-17T18:02:46;17.00;99.90
40638;DHT22;26336;44.696;10.622;2024-03-17T18:05:51;17.00;99.90
40638;DHT22;26336;44.696;10.622;2024-03-17T18:08:55;17.00;99.90
40638;DHT22;26336;44.696;10.622;2024-03-17T18:12:00;17.00;99.90
40638;DHT22;26336;44.696;10.622;2024-03-17T18:15:04;17.10;99.90
40638;DHT22;26336;44.696;10.622;2024-03-17T18:18:09;17.00;99.90
40638;DHT22;26336;44.696;10.622;2024-03-17T18:21:14;17.00;99.90
40638;DHT22;26336;44.696;10.622;2024-03-17T18:24:18;16.90;99.90
40638;DHT22;26336;44.696;10.622;2024-03-17T18:27:23;16.80;99.90
40638;DHT22;26336;44.696;10.622;2024-03-17T18:30:28;16.80;99.90
40638;DHT22;26336;44.696;10.622;2024-03-17T18:33:36;16.90;99.90
40638;DHT22;26336;44.696;10.622;2024-03-17T18:36:41;16.90;99.90
40638;DHT22;26336;44.696;10.622;2024-03-17T18:39:45;16.90;99.90
40638;DHT22;26336;44.696;10.622;2024-03-17T18:42:49;16.80;99.90
40638;DHT22;26336;44.696;10.622;2024-03-17T18:45:53;16.80;99.90
40638;DHT22;26336;44.696;10.622;2024-03-17T18:48:58;16.70;99.90
40638;DHT22;26336;44.696;10.622;2024-03-17T18:52:07;16.80;99.90
40638;DHT22;26336;44.696;10.622;2024-03-17T18:55:15;16.70;99.90
40638;DHT22;26336;44.696;10.622;2024-03-17T18:58:19;16.70;99.90
40638;DHT22;26336;44.696;10.622;2024-03-17T19:01:23;16.60;99.90
40638;DHT22;26336;44.696;10.622;2024-03-17T19:04:27;16.60;99.90
40638;DHT22;26336;44.696;10.622;2024-03-17T19:07:31;16.60;99.90
40638;DHT22;26336;44.696;10.622;2024-03-17T19:10:36;16.50;99.90
40638;DHT22;26336;44.696;10.622;2024-03-17T19:13:41;16.50;99.90
40638;DHT22;26336;44.696;10.622;2024-03-17T19:16:46;16.40;99.90